createdAt,value
2023-03-17T00:02:59.165Z,94922.00
2023-03-17T00:06:59.283Z,94916.00
2023-03-17T00:10:59.420Z,94909.00
2023-03-17T00:14:59.589Z,94907.00
2023-03-17T00:18:59.780Z,94901.00
2023-03-17T00:23:00.010Z,94895.00
2023-03-17T00:27:00.189Z,94897.00
2023-03-17T00:31:00.394Z,94895.00
2023-03-17T00:35:00.540Z,94875.00
2023-03-17T02:23:03.904Z,94814.00
2023-03-17T02:27:03.869Z,94811.00
2023-03-17T02:31:03.804Z,94820.00
2023-03-17T02:35:03.810Z,94816.00
2023-03-17T03:11:03.641Z,94805.00
2023-03-17T03:15:03.637Z,94805.00
2023-03-17T03:19:03.561Z,94807.00
2023-03-17T03:23:03.795Z,94807.00
2023-03-17T03:27:03.753Z,94803.00
2023-03-17T03:31:03.752Z,94811.00
2023-03-17T03:35:03.672Z,94799.00
2023-03-17T03:39:03.699Z,94805.00
2023-03-17T03:43:13.038Z,94809.00
2023-03-17T03:47:04.534Z,94816.00
2023-03-17T03:51:03.520Z,94814.00
2023-03-17T03:55:03.495Z,94818.00
2023-03-17T03:59:03.428Z,94811.00
2023-03-17T04:03:03.436Z,94807.00
2023-03-17T04:07:03.339Z,94797.00
2023-03-17T04:11:03.319Z,94805.00
2023-03-17T04:15:03.294Z,94799.00
2023-03-17T04:19:03.257Z,94787.00
2023-03-17T04:23:03.209Z,94807.00
2023-03-17T04:27:05.804Z,94805.00
2023-03-17T04:31:03.124Z,94789.00
2023-03-17T04:35:03.090Z,94789.00
2023-03-17T04:39:03.069Z,94783.00
2023-03-17T04:43:03.625Z,94781.00
2023-03-17T04:47:03.033Z,94775.00
2023-03-17T04:51:02.964Z,94754.00
2023-03-17T04:55:02.922Z,94760.00
2023-03-17T04:59:02.907Z,94767.00
2023-03-17T05:03:03.491Z,94818.00
2023-03-17T05:07:02.824Z,94834.00
2023-03-17T05:11:02.789Z,94834.00
2023-03-17T05:15:02.754Z,94834.00
2023-03-17T05:19:02.837Z,94840.00
2023-03-17T05:23:02.759Z,94832.00
2023-03-17T05:27:02.736Z,94840.00
2023-03-17T05:31:02.782Z,94773.00
2023-03-17T05:35:02.630Z,94771.00
2023-03-17T05:39:02.606Z,94769.00
2023-03-17T05:43:02.636Z,94766.00
2023-03-17T05:47:02.514Z,94775.00
2023-03-17T05:51:02.476Z,94773.00
2023-03-17T05:55:02.517Z,94766.00
2023-03-17T05:59:02.434Z,94775.00
2023-03-17T06:03:02.519Z,94769.00
2023-03-17T06:07:02.492Z,94777.00
2023-03-17T06:11:02.496Z,94771.00
2023-03-17T06:15:02.449Z,94807.00
2023-03-17T06:19:02.385Z,94799.00
2023-03-17T06:23:05.474Z,94787.00
2023-03-17T06:27:02.345Z,94801.00
2023-03-17T06:31:03.687Z,94795.00
2023-03-17T06:35:02.332Z,94793.00
2023-03-17T06:39:02.590Z,94795.00
2023-03-17T06:43:02.738Z,94787.00
2023-03-17T06:47:02.826Z,94787.00
2023-03-17T06:51:02.956Z,94787.00
2023-03-17T06:55:02.971Z,94777.00
2023-03-17T06:59:03.038Z,94779.00
2023-03-17T07:03:03.152Z,94781.00
2023-03-17T07:07:03.222Z,94769.00
2023-03-17T07:11:03.293Z,94777.00
2023-03-17T07:15:03.374Z,94773.00
2023-03-17T07:19:03.476Z,94779.00
2023-03-17T07:23:03.514Z,94783.00
2023-03-17T07:27:03.629Z,94787.00
2023-03-17T07:31:03.802Z,94787.00
2023-03-17T07:35:03.697Z,94781.00
2023-03-17T07:39:03.625Z,94773.00
2023-03-17T07:43:03.609Z,94781.00
2023-03-17T07:47:03.667Z,94773.00
2023-03-17T07:51:03.646Z,94750.00
2023-03-17T07:55:03.631Z,94756.00
2023-03-17T07:59:03.642Z,94752.00
2023-03-17T08:03:10.281Z,94752.00
2023-03-17T08:07:04.624Z,94777.00
2023-03-17T08:11:03.787Z,94771.00
2023-03-17T08:15:05.810Z,94769.00
2023-03-17T08:19:04.027Z,94756.00
2023-03-17T08:23:04.029Z,94760.00
2023-03-17T08:27:04.152Z,94736.00
2023-03-17T08:31:04.238Z,94728.00
2023-03-17T08:35:04.278Z,94728.00
2023-03-17T08:39:04.180Z,94726.00
2023-03-17T08:43:04.345Z,94709.00
2023-03-17T08:47:04.485Z,94703.00
2023-03-17T08:51:04.481Z,94693.00
2023-03-17T08:55:04.453Z,94693.00
2023-03-17T08:59:04.451Z,94691.00
2023-03-17T09:03:04.388Z,94681.00
2023-03-17T09:07:04.629Z,94664.00
2023-03-17T09:11:05.742Z,94665.00
2023-03-17T09:15:04.281Z,94664.00
2023-03-17T09:19:04.222Z,94656.00
2023-03-17T09:23:04.197Z,94667.00
2023-03-17T09:27:04.158Z,94665.00
2023-03-17T09:31:04.366Z,94658.00
2023-03-17T09:35:04.316Z,94648.00
2023-03-17T09:39:06.565Z,94646.00
2023-03-17T09:43:04.468Z,94615.00
2023-03-17T09:47:04.505Z,94634.00
2023-03-17T09:51:04.940Z,94626.00
2023-03-17T09:55:04.611Z,94613.00
2023-03-17T09:59:04.673Z,94603.00
2023-03-17T10:03:04.860Z,94591.00
2023-03-17T10:07:05.052Z,94607.00
2023-03-17T10:11:05.237Z,94601.00
2023-03-17T10:15:05.468Z,94587.00
2023-03-17T10:19:05.596Z,94568.00
2023-03-17T10:23:05.624Z,94572.00
2023-03-17T10:27:05.704Z,94564.00
2023-03-17T10:31:05.855Z,94558.00
2023-03-17T10:35:05.903Z,94554.00
2023-03-17T10:39:05.846Z,94540.00
2023-03-17T10:43:05.896Z,94546.00
2023-03-17T10:47:06.020Z,94530.00
2023-03-17T10:51:06.119Z,94530.00
2023-03-17T10:55:06.112Z,94524.00
2023-03-17T10:59:06.269Z,94509.00
2023-03-17T11:03:06.377Z,94511.00
2023-03-17T11:07:06.886Z,94507.00
2023-03-17T11:11:06.660Z,94493.00
2023-03-17T11:15:06.692Z,94473.00
2023-03-17T11:19:06.757Z,94487.00
2023-03-17T11:23:06.860Z,94483.00
2023-03-17T11:27:06.876Z,94446.00
2023-03-17T11:31:06.971Z,94446.00
2023-03-17T11:35:07.049Z,94446.00
2023-03-17T11:39:07.053Z,94430.00
2023-03-17T11:43:07.120Z,94426.00
2023-03-17T11:47:07.145Z,94415.00
2023-03-17T11:51:07.130Z,94391.00
2023-03-17T11:55:07.329Z,94421.00
2023-03-17T11:59:07.248Z,94356.00
2023-03-17T12:03:07.255Z,94405.00
2023-03-17T12:07:07.231Z,94395.00
2023-03-17T12:11:07.267Z,94391.00
2023-03-17T12:15:07.409Z,94387.00
2023-03-17T12:19:07.528Z,94366.00
2023-03-17T12:23:07.669Z,94366.00
2023-03-17T12:27:07.692Z,94370.00
2023-03-17T12:31:07.750Z,94368.00
2023-03-17T12:35:07.829Z,94342.00
2023-03-17T12:39:07.817Z,94334.00
2023-03-17T12:43:07.844Z,94324.00
2023-03-17T12:47:07.876Z,94338.00
2023-03-17T12:51:07.969Z,94330.00
2023-03-17T12:55:08.389Z,94338.00
2023-03-17T12:59:07.961Z,94317.00
2023-03-17T13:03:08.042Z,94313.00
2023-03-17T13:07:08.058Z,94299.00
2023-03-17T13:11:08.086Z,94305.00
2023-03-17T13:15:08.114Z,94301.00
2023-03-17T13:19:08.158Z,94301.00
2023-03-17T13:23:08.162Z,94297.00
2023-03-17T13:27:08.200Z,94272.00
2023-03-17T13:31:08.273Z,94281.00
2023-03-17T13:35:08.299Z,94281.00
2023-03-17T13:39:18.834Z,94275.00
2023-03-17T13:43:09.284Z,94268.00
2023-03-17T13:47:08.322Z,94264.00
2023-03-17T13:51:08.228Z,94264.00
2023-03-17T13:55:08.190Z,94254.00
2023-03-17T13:59:08.193Z,94240.00
2023-03-17T14:03:08.125Z,94240.00
2023-03-17T14:07:08.077Z,94244.00
2023-03-17T14:11:08.086Z,94242.00
2023-03-17T14:15:08.597Z,94244.00
2023-03-17T14:19:08.174Z,94236.00
2023-03-17T14:23:08.178Z,94240.00
2023-03-17T14:27:08.249Z,94244.00
2023-03-17T14:31:08.266Z,94240.00
2023-03-17T14:35:08.302Z,94232.00
2023-03-17T14:39:08.335Z,94224.00
2023-03-17T14:43:08.412Z,94238.00
2023-03-17T14:47:10.634Z,94232.00
2023-03-17T14:51:08.377Z,94234.00
2023-03-17T14:55:08.402Z,94215.00
2023-03-17T14:59:08.311Z,94215.00
2023-03-17T15:03:08.293Z,94222.00
2023-03-17T15:07:08.218Z,94215.00
2023-03-17T15:11:08.194Z,94217.00
2023-03-17T15:15:08.185Z,94215.00
2023-03-17T15:19:08.210Z,94215.00
2023-03-17T15:23:08.070Z,94209.00
2023-03-17T15:27:08.042Z,94209.00
2023-03-17T15:31:08.062Z,94207.00
2023-03-17T15:35:08.004Z,94217.00
2023-03-17T15:39:07.952Z,94213.00
2023-03-17T15:43:07.919Z,94209.00
2023-03-17T15:47:07.902Z,94211.00
2023-03-17T15:51:07.861Z,94222.00
2023-03-17T15:55:07.879Z,94213.00
2023-03-17T15:59:07.747Z,94209.00
2023-03-17T16:03:07.727Z,94215.00
2023-03-17T16:07:07.721Z,94217.00
2023-03-17T16:11:07.647Z,94222.00
2023-03-17T16:15:20.195Z,94240.00
2023-03-17T16:19:08.574Z,94222.00
2023-03-17T16:23:07.554Z,94217.00
2023-03-17T16:27:07.492Z,94232.00
2023-03-17T16:31:07.524Z,94215.00
2023-03-17T16:35:07.729Z,94219.00
2023-03-17T16:39:07.671Z,94230.00
2023-03-17T16:43:19.103Z,94238.00
2023-03-17T16:47:08.754Z,94236.00
2023-03-17T16:51:07.717Z,94244.00
2023-03-17T16:55:07.688Z,94258.00
2023-03-17T16:59:07.859Z,94252.00
2023-03-17T17:03:08.064Z,94264.00
2023-03-17T17:07:08.170Z,94256.00
2023-03-17T17:11:08.364Z,94277.00
2023-03-17T17:15:08.530Z,94264.00
2023-03-17T17:19:08.725Z,94277.00
2023-03-17T17:23:08.904Z,94277.00
2023-03-17T17:27:09.136Z,94283.00
2023-03-17T17:31:09.359Z,94277.00
2023-03-17T17:35:09.541Z,94268.00
2023-03-17T17:39:09.719Z,94270.00
2023-03-17T17:43:10.037Z,94285.00
2023-03-17T17:47:10.230Z,94275.00
2023-03-17T17:51:10.390Z,94273.00
2023-03-17T17:55:10.356Z,94281.00
2023-03-17T17:59:10.339Z,94279.00
2023-03-17T18:03:10.295Z,94270.00
2023-03-17T18:07:10.242Z,94287.00
2023-03-17T18:11:10.216Z,94273.00
2023-03-17T18:15:10.201Z,94279.00
2023-03-17T18:19:10.159Z,94287.00
2023-03-17T18:23:10.125Z,94285.00
2023-03-17T18:27:10.053Z,94289.00
2023-03-17T18:31:10.039Z,94297.00
2023-03-17T18:35:10.030Z,94305.00
2023-03-17T18:39:10.195Z,94289.00
2023-03-17T18:43:10.317Z,94303.00
2023-03-17T18:47:10.332Z,94303.00
2023-03-17T18:51:10.385Z,94301.00
2023-03-17T18:55:10.419Z,94301.00
2023-03-17T18:59:10.439Z,94305.00
2023-03-17T19:03:10.567Z,94297.00
2023-03-17T19:07:10.688Z,94317.00
2023-03-17T19:11:10.697Z,94315.00
2023-03-17T19:15:10.688Z,94315.00
2023-03-17T19:19:10.623Z,94319.00
2023-03-17T19:23:10.566Z,94315.00
2023-03-17T19:27:10.534Z,94323.00
2023-03-17T19:31:10.514Z,94317.00
2023-03-17T19:35:10.472Z,94324.00
2023-03-17T19:39:10.431Z,94311.00
2023-03-17T19:43:10.368Z,94321.00
2023-03-17T19:47:10.357Z,94323.00
2023-03-17T19:51:10.308Z,94315.00
2023-03-17T19:55:10.277Z,94323.00
2023-03-17T19:59:10.229Z,94319.00
2023-03-17T20:03:10.209Z,94321.00
2023-03-17T20:07:10.242Z,94326.00
2023-03-17T20:11:10.137Z,94330.00
2023-03-17T20:15:10.082Z,94336.00
2023-03-17T20:19:10.073Z,94328.00
2023-03-17T20:23:10.014Z,94330.00
2023-03-17T20:27:10.064Z,94328.00
2023-03-17T20:31:10.163Z,94348.00
2023-03-17T20:35:10.316Z,94362.00
2023-03-17T20:39:10.511Z,94350.00
2023-03-17T20:43:10.701Z,94348.00
2023-03-17T20:47:10.863Z,94354.00
2023-03-17T20:51:10.997Z,94346.00
2023-03-17T20:55:11.170Z,94352.00
2023-03-17T20:59:11.362Z,94348.00
2023-03-17T21:03:11.610Z,94366.00
2023-03-17T21:07:11.704Z,94354.00
2023-03-17T21:11:11.907Z,94358.00
2023-03-17T21:15:12.067Z,94364.00
2023-03-17T21:19:12.069Z,94370.00
2023-03-17T21:23:12.032Z,94381.00
2023-03-17T21:27:11.955Z,94391.00
2023-03-17T21:31:11.957Z,94401.00
2023-03-17T21:35:11.913Z,94395.00
2023-03-17T21:39:11.872Z,94405.00
2023-03-17T21:43:11.811Z,94389.00
2023-03-17T21:47:11.775Z,94409.00
2023-03-17T21:51:11.754Z,94411.00
2023-03-17T21:55:11.788Z,94417.00
2023-03-17T21:59:12.001Z,94399.00
2023-03-17T22:03:12.116Z,94428.00
2023-03-17T22:07:12.065Z,94424.00
2023-03-17T22:11:12.037Z,94430.00
2023-03-17T22:15:12.008Z,94434.00
2023-03-17T22:19:11.990Z,94448.00
2023-03-17T22:23:12.071Z,94442.00
2023-03-17T22:27:12.049Z,94448.00
2023-03-17T22:31:12.131Z,94450.00
2023-03-17T22:35:12.152Z,94456.00
2023-03-17T22:39:12.186Z,94454.00
2023-03-17T22:43:12.161Z,94456.00
2023-03-17T22:47:12.187Z,94448.00
2023-03-17T22:51:12.171Z,94460.00
2023-03-17T22:55:12.147Z,94462.00
2023-03-17T22:59:12.159Z,94460.00
2023-03-17T23:03:12.227Z,94470.00
2023-03-17T23:07:12.234Z,94475.00
2023-03-17T23:11:12.274Z,94483.00
2023-03-17T23:15:12.406Z,94487.00
2023-03-17T23:19:12.370Z,94483.00
2023-03-17T23:23:12.369Z,94483.00
2023-03-17T23:27:12.368Z,94487.00
2023-03-17T23:31:12.451Z,94495.00
2023-03-17T23:35:12.467Z,94501.00
2023-03-17T23:39:12.602Z,94503.00
2023-03-17T23:43:12.601Z,94503.00
2023-03-17T23:47:12.753Z,94507.00
2023-03-17T23:51:12.796Z,94509.00
2023-03-17T23:55:12.852Z,94501.00
2023-03-17T23:59:12.880Z,94513.00
